createdAt,value
2022-11-27T00:00:13.331Z,5.28
2022-11-27T00:02:40.875Z,5.75
2022-11-27T00:05:07.597Z,5.03
2022-11-27T00:07:33.995Z,4.72
2022-11-27T00:10:00.410Z,4.70
2022-11-27T00:12:26.999Z,5.05
2022-11-27T00:14:55.558Z,5.25
2022-11-27T00:17:22.263Z,6.00
2022-11-27T00:19:48.944Z,5.07
2022-11-27T00:22:15.257Z,4.68
2022-11-27T00:24:43.327Z,4.82
2022-11-27T00:27:09.937Z,4.60
2022-11-27T00:29:37.925Z,4.18
2022-11-27T00:32:06.421Z,4.93
2022-11-27T00:34:32.906Z,4.22
2022-11-27T00:36:59.326Z,4.68
2022-11-27T00:39:25.686Z,4.10
2022-11-27T00:41:52.148Z,4.28
2022-11-27T00:44:18.506Z,4.25
2022-11-27T00:46:45.545Z,4.40
2022-11-27T00:49:13.387Z,3.58
2022-11-27T00:51:39.990Z,3.92
2022-11-27T00:54:06.599Z,4.20
2022-11-27T00:56:34.798Z,4.35
2022-11-27T00:59:01.435Z,4.53
2022-11-27T01:01:28.997Z,4.90
2022-11-27T01:03:56.440Z,4.40
2022-11-27T01:06:22.823Z,4.93
2022-11-27T01:08:49.274Z,4.35
2022-11-27T01:11:16.732Z,4.03
2022-11-27T01:13:43.066Z,4.25
2022-11-27T01:16:10.711Z,4.47
2022-11-27T01:18:38.289Z,4.22
2022-11-27T01:21:05.234Z,4.40
2022-11-27T01:23:31.599Z,5.00
2022-11-27T01:26:00.263Z,4.25
2022-11-27T01:28:26.689Z,4.15
2022-11-27T01:30:53.246Z,4.82
2022-11-27T01:33:20.027Z,4.40
2022-11-27T01:35:56.280Z,4.40
2022-11-27T01:38:24.181Z,4.80
2022-11-27T01:40:56.856Z,4.07
2022-11-27T01:43:36.549Z,4.53
2022-11-27T01:46:03.341Z,4.60
2022-11-27T01:48:29.805Z,4.30
2022-11-27T01:50:56.135Z,4.60
2022-11-27T01:53:22.466Z,3.85
2022-11-27T01:55:52.067Z,4.13
2022-11-27T01:58:21.833Z,4.18
2022-11-27T02:00:48.153Z,3.80
2022-11-27T02:03:15.847Z,4.00
2022-11-27T02:05:42.410Z,4.00
2022-11-27T02:08:13.466Z,4.00
2022-11-27T02:10:42.950Z,4.40
2022-11-27T02:13:11.785Z,4.07
2022-11-27T02:15:49.078Z,4.43
2022-11-27T02:18:22.497Z,4.32
2022-11-27T02:20:51.889Z,4.22
2022-11-27T02:23:46.965Z,4.55
2022-11-27T02:26:22.829Z,4.00
2022-11-27T02:29:03.720Z,4.57
2022-11-27T02:31:36.807Z,4.65
2022-11-27T02:34:23.764Z,4.65
2022-11-27T02:36:53.242Z,5.20
2022-11-27T02:39:22.501Z,4.55
2022-11-27T02:41:57.833Z,4.32
2022-11-27T02:44:25.461Z,4.70
2022-11-27T02:46:52.519Z,4.68
2022-11-27T02:49:19.799Z,5.00
2022-11-27T02:51:49.375Z,4.88
2022-11-27T02:54:18.196Z,5.15
2022-11-27T02:56:45.093Z,4.00
2022-11-27T02:59:12.945Z,5.18
2022-11-27T03:01:42.702Z,5.05
2022-11-27T03:04:11.128Z,5.38
2022-11-27T03:06:40.568Z,4.28
2022-11-27T03:09:08.531Z,4.97
2022-11-27T03:11:36.117Z,5.38
2022-11-27T03:14:04.834Z,5.07
2022-11-27T03:16:53.205Z,4.97
2022-11-27T03:19:22.694Z,4.63
2022-11-27T03:21:52.009Z,4.22
2022-11-27T03:24:18.775Z,5.22
2022-11-27T03:26:45.446Z,5.38
2022-11-27T03:29:17.294Z,4.57
2022-11-27T03:31:43.957Z,5.10
2022-11-27T03:34:10.661Z,4.72
2022-11-27T03:36:37.181Z,4.80
2022-11-27T03:39:04.085Z,4.80
2022-11-27T03:41:49.488Z,4.32
2022-11-27T03:44:21.641Z,5.00
2022-11-27T03:47:06.874Z,5.07
2022-11-27T03:49:39.654Z,5.30
2022-11-27T03:52:16.589Z,4.70
2022-11-27T03:54:47.953Z,5.70
2022-11-27T03:57:19.416Z,4.35
2022-11-27T03:59:47.161Z,5.68
2022-11-27T04:02:14.359Z,5.10
2022-11-27T04:04:41.279Z,5.97
2022-11-27T04:07:09.840Z,5.30
2022-11-27T04:09:36.314Z,5.20
2022-11-27T04:12:02.662Z,5.25
2022-11-27T04:14:28.986Z,5.50
2022-11-27T04:16:55.267Z,5.90
2022-11-27T04:19:21.630Z,6.32
2022-11-27T04:21:47.965Z,5.85
2022-11-27T04:24:14.313Z,5.65
2022-11-27T04:26:40.761Z,5.82
2022-11-27T04:29:07.147Z,6.10
2022-11-27T04:31:33.552Z,5.38
2022-11-27T04:33:59.899Z,5.97
2022-11-27T04:36:26.229Z,5.70
2022-11-27T04:38:52.589Z,5.40
2022-11-27T04:41:18.938Z,5.20
2022-11-27T04:43:45.289Z,5.10
2022-11-27T04:46:11.825Z,6.00
2022-11-27T04:48:38.301Z,6.07
2022-11-27T04:51:04.637Z,6.53
2022-11-27T04:53:30.977Z,4.85
2022-11-27T04:55:57.328Z,5.82
2022-11-27T04:58:23.638Z,4.72
2022-11-27T05:00:50.039Z,5.70
2022-11-27T05:03:16.396Z,5.20
2022-11-27T05:05:42.714Z,5.22
2022-11-27T05:08:09.070Z,5.60
2022-11-27T05:10:35.405Z,5.25
2022-11-27T05:13:01.964Z,5.63
2022-11-27T05:15:28.262Z,4.85
2022-11-27T05:17:54.610Z,5.35
2022-11-27T05:20:20.918Z,4.60
2022-11-27T05:22:48.120Z,5.22
2022-11-27T05:25:14.625Z,5.07
2022-11-27T05:27:41.117Z,5.18
2022-11-27T05:30:07.832Z,4.50
2022-11-27T05:32:34.287Z,5.13
2022-11-27T05:35:00.572Z,4.60
2022-11-27T05:37:27.006Z,4.65
2022-11-27T05:39:53.360Z,4.50
2022-11-27T05:42:19.682Z,4.40
2022-11-27T05:44:45.962Z,5.05
2022-11-27T05:47:12.446Z,4.65
2022-11-27T05:49:39.175Z,4.43
2022-11-27T05:52:05.580Z,4.80
2022-11-27T05:54:31.857Z,4.75
2022-11-27T05:56:58.169Z,4.40
2022-11-27T05:59:24.635Z,5.18
2022-11-27T06:01:51.180Z,4.50
2022-11-27T06:04:17.664Z,4.95
2022-11-27T06:06:44.134Z,4.55
2022-11-27T06:09:13.257Z,4.43
2022-11-27T06:11:40.382Z,4.80
2022-11-27T06:14:10.156Z,4.43
2022-11-27T06:16:37.075Z,4.20
2022-11-27T06:19:03.659Z,4.57
2022-11-27T06:21:30.004Z,4.50
2022-11-27T06:23:56.475Z,4.47
2022-11-27T06:26:24.771Z,4.35
2022-11-27T06:28:51.488Z,4.68
2022-11-27T06:31:19.804Z,4.88
2022-11-27T06:33:47.085Z,4.35
2022-11-27T06:36:13.662Z,4.50
2022-11-27T06:38:40.249Z,4.93
2022-11-27T06:41:08.256Z,4.65
2022-11-27T06:43:36.127Z,4.50
2022-11-27T06:46:03.285Z,4.70
2022-11-27T06:48:30.404Z,4.78
2022-11-27T06:51:03.203Z,4.13
2022-11-27T06:53:30.244Z,4.47
2022-11-27T06:55:57.336Z,4.50
2022-11-27T06:58:29.344Z,4.30
2022-11-27T07:01:01.492Z,4.43
2022-11-27T07:03:27.825Z,4.88
2022-11-27T07:05:54.373Z,4.32
2022-11-27T07:08:21.074Z,5.00
2022-11-27T07:10:47.513Z,4.70
2022-11-27T07:13:13.812Z,4.78
2022-11-27T07:15:40.114Z,4.78
2022-11-27T07:18:06.588Z,4.50
2022-11-27T07:20:32.967Z,4.60
2022-11-27T07:22:59.480Z,4.55
2022-11-27T07:25:25.752Z,4.88
2022-11-27T07:27:52.392Z,4.28
2022-11-27T07:30:18.910Z,4.75
2022-11-27T07:32:45.238Z,4.00
2022-11-27T07:35:11.735Z,5.40
2022-11-27T07:37:38.119Z,4.47
2022-11-27T07:40:04.896Z,5.10
2022-11-27T07:42:37.897Z,4.88
2022-11-27T07:45:05.905Z,4.80
2022-11-27T07:47:32.283Z,5.43
2022-11-27T07:50:00.356Z,4.40
2022-11-27T07:52:27.211Z,4.30
2022-11-27T07:54:53.662Z,4.90
2022-11-27T07:57:20.002Z,5.45
2022-11-27T07:59:48.422Z,4.20
2022-11-27T08:02:14.726Z,5.05
2022-11-27T08:04:41.544Z,4.63
2022-11-27T08:07:08.353Z,5.20
2022-11-27T08:09:34.879Z,5.55
2022-11-27T08:12:01.384Z,5.38
2022-11-27T08:14:27.845Z,5.50
2022-11-27T08:16:54.290Z,5.03
2022-11-27T08:19:23.214Z,4.63
2022-11-27T08:21:49.560Z,5.10
2022-11-27T08:24:16.131Z,5.10
2022-11-27T08:26:42.683Z,5.30
2022-11-27T08:29:11.836Z,5.07
2022-11-27T08:31:38.403Z,4.43
2022-11-27T08:34:05.018Z,4.68
2022-11-27T08:36:31.385Z,4.43
2022-11-27T08:38:57.664Z,5.03
2022-11-27T08:41:24.019Z,4.45
2022-11-27T08:43:50.339Z,5.35
2022-11-27T08:46:16.688Z,4.70
2022-11-27T08:48:43.520Z,7.65
2022-11-27T08:51:11.685Z,5.43
2022-11-27T08:53:40.200Z,5.28
2022-11-27T08:56:11.996Z,4.90
2022-11-27T08:58:41.122Z,4.88
2022-11-27T09:01:11.889Z,4.80
2022-11-27T09:03:38.775Z,20.75
2022-11-27T09:06:09.510Z,5.28
2022-11-27T09:08:37.519Z,5.70
2022-11-27T09:11:04.760Z,5.20
2022-11-27T09:13:31.433Z,4.18
2022-11-27T09:15:58.218Z,5.30
2022-11-27T09:18:24.704Z,5.13
2022-11-27T09:20:58.270Z,5.60
2022-11-27T09:23:24.660Z,4.50
2022-11-27T09:25:51.114Z,4.53
2022-11-27T09:28:18.745Z,5.30
2022-11-27T09:30:45.149Z,5.28
2022-11-27T09:33:11.837Z,5.40
2022-11-27T09:35:39.154Z,5.28
2022-11-27T09:38:05.976Z,5.03
2022-11-27T09:40:34.213Z,5.25
2022-11-27T09:43:04.285Z,5.45
2022-11-27T09:45:30.983Z,4.80
2022-11-27T09:48:02.683Z,5.80
2022-11-27T09:50:39.541Z,5.35
2022-11-27T09:53:13.367Z,5.57
2022-11-27T09:55:43.131Z,6.32
2022-11-27T09:58:27.731Z,4.53
2022-11-27T10:00:54.176Z,5.65
2022-11-27T10:03:24.341Z,5.20
2022-11-27T10:06:14.338Z,5.43
2022-11-27T10:08:51.167Z,5.15
2022-11-27T10:11:30.501Z,6.22
2022-11-27T10:14:15.190Z,5.05
2022-11-27T10:19:36.293Z,5.97
2022-11-27T10:22:19.604Z,5.85
2022-11-27T10:25:02.229Z,5.60
2022-11-27T10:27:36.949Z,5.63
2022-11-27T10:30:04.212Z,6.15
2022-11-27T10:32:54.814Z,4.90
2022-11-27T10:35:25.709Z,6.35
2022-11-27T10:38:10.337Z,6.07
2022-11-27T10:40:41.885Z,5.50
2022-11-27T10:43:21.270Z,6.07
2022-11-27T10:45:50.156Z,5.88
2022-11-27T10:48:17.010Z,5.63
2022-11-27T10:50:43.671Z,6.15
2022-11-27T10:53:31.328Z,6.07
2022-11-27T10:56:06.678Z,5.70
2022-11-27T10:58:52.253Z,6.03
2022-11-27T11:01:20.448Z,6.20
2022-11-27T11:03:46.922Z,6.35
2022-11-27T11:06:22.331Z,6.18
2022-11-27T11:09:10.591Z,6.68
2022-11-27T11:11:36.909Z,6.05
2022-11-27T11:14:03.258Z,5.90
2022-11-27T11:16:35.235Z,6.18
2022-11-27T11:19:08.789Z,7.15
2022-11-27T11:21:38.297Z,6.70
2022-11-27T11:24:14.258Z,6.03
2022-11-27T11:26:45.064Z,6.00
2022-11-27T11:29:22.646Z,6.28
2022-11-27T11:31:49.160Z,6.05
2022-11-27T11:34:20.587Z,6.15
2022-11-27T11:36:56.912Z,5.78
2022-11-27T11:39:25.760Z,6.38
2022-11-27T11:41:52.115Z,6.43
2022-11-27T11:44:32.693Z,6.65
2022-11-27T11:46:59.016Z,6.47
2022-11-27T11:49:26.770Z,7.00
2022-11-27T11:52:22.401Z,6.90
2022-11-27T11:54:59.974Z,6.85
2022-11-27T11:57:32.745Z,6.40
2022-11-27T12:00:00.187Z,6.20
2022-11-27T12:02:42.712Z,6.90
2022-11-27T12:05:09.022Z,6.63
2022-11-27T12:07:54.120Z,6.78
2022-11-27T12:10:39.534Z,7.22
2022-11-27T12:13:15.038Z,7.47
2022-11-27T12:15:41.384Z,7.70
2022-11-27T12:18:08.839Z,6.43
2022-11-27T12:20:38.394Z,6.35
2022-11-27T12:23:22.585Z,6.82
2022-11-27T12:25:57.206Z,6.47
2022-11-27T12:28:42.765Z,7.07
2022-11-27T12:31:20.739Z,7.03
2022-11-27T12:34:05.685Z,6.80
2022-11-27T12:36:55.054Z,6.68
2022-11-27T12:39:28.427Z,6.35
2022-11-27T12:42:21.756Z,6.57
2022-11-27T12:44:49.499Z,6.10
2022-11-27T12:47:19.634Z,6.63
2022-11-27T12:49:48.017Z,6.45
2022-11-27T12:52:19.258Z,6.47
2022-11-27T12:57:15.142Z,6.10
2022-11-27T12:59:43.163Z,6.30
2022-11-27T13:02:09.832Z,6.97
2022-11-27T13:04:54.467Z,6.43
2022-11-27T13:07:26.571Z,6.18
2022-11-27T13:10:03.083Z,5.82
2022-11-27T13:12:37.603Z,6.38
2022-11-27T13:15:07.061Z,6.20
2022-11-27T13:17:37.281Z,6.18
2022-11-27T13:20:06.013Z,6.60
2022-11-27T13:22:34.799Z,6.43
2022-11-27T13:25:02.342Z,6.32
2022-11-27T13:27:30.673Z,6.45
2022-11-27T13:30:05.810Z,6.35
2022-11-27T13:32:41.203Z,6.00
2022-11-27T13:35:26.806Z,6.50
2022-11-27T13:37:59.377Z,6.40
2022-11-27T13:40:31.215Z,5.95
2022-11-27T13:42:59.112Z,6.25
2022-11-27T13:45:25.804Z,6.20
2022-11-27T13:47:52.961Z,5.28
2022-11-27T13:50:20.737Z,5.57
2022-11-27T13:52:57.326Z,5.70
2022-11-27T13:55:25.462Z,5.60
2022-11-27T13:57:53.355Z,5.40
2022-11-27T14:00:30.284Z,5.75
2022-11-27T14:02:56.688Z,5.50
2022-11-27T14:05:33.999Z,5.47
2022-11-27T14:08:00.579Z,5.45
2022-11-27T14:10:28.564Z,6.00
2022-11-27T14:12:56.661Z,6.03
2022-11-27T14:15:24.520Z,6.22
2022-11-27T14:17:52.180Z,5.82
2022-11-27T14:20:27.610Z,6.93
2022-11-27T14:23:12.803Z,5.28
2022-11-27T14:25:39.766Z,5.88
2022-11-27T14:28:19.699Z,6.40
2022-11-27T14:30:48.130Z,6.18
2022-11-27T14:33:22.573Z,5.65
2022-11-27T14:35:53.064Z,6.70
2022-11-27T14:38:20.008Z,7.18
2022-11-27T14:40:46.787Z,6.55
2022-11-27T14:43:14.958Z,6.32
2022-11-27T14:45:49.372Z,6.85
2022-11-27T14:48:19.062Z,6.55
2022-11-27T14:50:45.631Z,6.68
2022-11-27T14:53:12.417Z,7.15
2022-11-27T14:55:38.778Z,7.05
2022-11-27T14:58:05.854Z,7.13
2022-11-27T15:00:32.444Z,7.60
2022-11-27T15:03:09.571Z,6.63
2022-11-27T15:05:37.247Z,7.20
2022-11-27T15:08:04.046Z,6.82
2022-11-27T15:10:32.195Z,7.60
2022-11-27T15:13:00.145Z,7.10
2022-11-27T15:15:28.374Z,7.97
2022-11-27T15:17:56.993Z,7.72
2022-11-27T15:20:25.769Z,7.88
2022-11-27T15:22:53.926Z,7.63
2022-11-27T15:25:34.639Z,7.65
2022-11-27T15:28:01.478Z,8.63
2022-11-27T15:30:27.967Z,7.75
2022-11-27T15:32:55.439Z,7.72
2022-11-27T15:35:23.961Z,7.70
2022-11-27T15:37:51.453Z,7.53
2022-11-27T15:40:27.664Z,8.90
2022-11-27T15:42:54.075Z,8.38
2022-11-27T15:45:20.626Z,7.75
2022-11-27T15:47:46.943Z,8.05
2022-11-27T15:50:14.341Z,7.50
2022-11-27T15:52:40.878Z,7.75
2022-11-27T15:55:07.885Z,7.13
2022-11-27T15:57:34.276Z,7.53
2022-11-27T16:00:00.667Z,7.07
2022-11-27T16:02:30.166Z,7.20
2022-11-27T16:04:56.639Z,7.88
2022-11-27T16:07:23.163Z,7.85
2022-11-27T16:09:49.553Z,7.20
2022-11-27T16:12:15.951Z,7.93
2022-11-27T16:14:42.801Z,7.75
2022-11-27T16:17:09.342Z,8.05
2022-11-27T16:19:35.705Z,8.65
2022-11-27T16:22:02.053Z,7.70
2022-11-27T16:24:28.353Z,7.38
2022-11-27T16:26:54.640Z,8.20
2022-11-27T16:29:21.134Z,7.90
2022-11-27T16:31:47.824Z,6.97
2022-11-27T16:34:16.011Z,7.45
2022-11-27T16:36:43.718Z,7.70
2022-11-27T16:39:10.679Z,7.53
2022-11-27T16:41:38.322Z,7.75
2022-11-27T16:44:09.573Z,7.65
2022-11-27T16:46:36.404Z,7.10
2022-11-27T16:49:06.344Z,7.13
2022-11-27T16:51:33.868Z,7.32
2022-11-27T16:54:01.532Z,7.32
2022-11-27T16:56:28.808Z,7.60
2022-11-27T16:59:00.960Z,7.25
2022-11-27T17:01:30.784Z,6.85
2022-11-27T17:03:57.108Z,7.38
2022-11-27T17:06:27.872Z,8.70
2022-11-27T17:08:55.049Z,7.85
2022-11-27T17:11:24.632Z,7.38
2022-11-27T17:13:51.502Z,6.97
2022-11-27T17:16:18.471Z,6.72
2022-11-27T17:18:46.521Z,7.35
2022-11-27T17:21:18.477Z,7.05
2022-11-27T17:23:46.762Z,7.70
2022-11-27T17:26:15.495Z,6.82
2022-11-27T17:28:42.581Z,7.45
2022-11-27T17:31:10.642Z,7.97
2022-11-27T17:33:37.038Z,7.55
2022-11-27T17:36:03.547Z,7.57
2022-11-27T17:38:30.337Z,7.60
2022-11-27T17:41:07.452Z,7.25
2022-11-27T17:43:34.547Z,7.85
2022-11-27T17:46:01.461Z,9.52
2022-11-27T17:48:27.985Z,7.25
2022-11-27T17:50:54.542Z,7.18
2022-11-27T17:53:21.080Z,7.93
2022-11-27T17:55:47.463Z,8.57
2022-11-27T17:58:13.971Z,7.75
2022-11-27T18:00:40.861Z,7.55
2022-11-27T18:03:07.693Z,8.20
2022-11-27T18:05:38.169Z,8.23
2022-11-27T18:08:04.942Z,7.47
2022-11-27T18:10:33.306Z,7.60
2022-11-27T18:12:59.740Z,7.68
2022-11-27T18:15:26.054Z,7.88
2022-11-27T18:17:52.465Z,8.25
2022-11-27T18:20:18.968Z,8.20
2022-11-27T18:22:45.362Z,8.07
2022-11-27T18:25:11.730Z,8.43
2022-11-27T18:27:38.085Z,7.45
2022-11-27T18:30:04.834Z,8.80
2022-11-27T18:32:31.189Z,8.65
2022-11-27T18:34:57.549Z,8.52
2022-11-27T18:37:23.924Z,8.20
2022-11-27T18:39:51.352Z,8.38
2022-11-27T18:42:17.707Z,8.70
2022-11-27T18:44:45.430Z,8.65
2022-11-27T18:47:12.857Z,10.45
2022-11-27T18:49:40.606Z,9.13
2022-11-27T18:52:08.224Z,8.52
2022-11-27T18:54:37.090Z,9.30
2022-11-27T18:57:06.323Z,8.32
2022-11-27T18:59:33.788Z,9.63
2022-11-27T19:02:00.402Z,9.25
2022-11-27T19:04:26.942Z,9.02
2022-11-27T19:06:53.531Z,8.68
2022-11-27T19:09:21.089Z,9.27
2022-11-27T19:11:48.002Z,8.07
2022-11-27T19:14:14.559Z,8.50
2022-11-27T19:16:46.035Z,8.43
2022-11-27T19:19:52.174Z,9.07
2022-11-27T19:22:00.789Z,8.32
2022-11-27T19:24:27.205Z,8.95
2022-11-27T19:26:53.705Z,9.52
2022-11-27T19:29:20.313Z,9.15
2022-11-27T19:31:47.497Z,9.18
2022-11-27T19:34:14.536Z,9.10
2022-11-27T19:36:41.014Z,8.80
2022-11-27T19:39:11.172Z,9.70
2022-11-27T19:41:38.216Z,9.38
2022-11-27T19:44:05.555Z,9.00
2022-11-27T19:46:33.473Z,9.75
2022-11-27T19:49:09.490Z,9.68
2022-11-27T19:51:36.693Z,9.60
2022-11-27T19:54:08.388Z,10.00
2022-11-27T19:56:39.743Z,9.73
2022-11-27T19:59:06.464Z,9.32
2022-11-27T20:01:33.374Z,9.13
2022-11-27T20:04:03.097Z,9.02
2022-11-27T20:06:29.612Z,9.70
2022-11-27T20:09:01.023Z,9.20
2022-11-27T20:11:34.150Z,10.35
2022-11-27T20:14:02.538Z,9.40
2022-11-27T20:16:29.019Z,9.25
2022-11-27T20:18:57.520Z,9.15
2022-11-27T20:21:24.670Z,9.32
2022-11-27T20:23:51.780Z,9.10
2022-11-27T20:26:19.986Z,9.20
2022-11-27T20:28:48.201Z,9.77
2022-11-27T20:31:16.757Z,8.88
2022-11-27T20:33:43.467Z,10.18
2022-11-27T20:36:10.843Z,9.52
2022-11-27T20:38:37.176Z,9.35
2022-11-27T20:41:10.705Z,9.10
2022-11-27T20:43:37.430Z,10.05
2022-11-27T20:46:04.104Z,10.15
2022-11-27T20:48:30.879Z,9.05
2022-11-27T20:51:03.932Z,9.90
2022-11-27T20:53:30.467Z,9.07
2022-11-27T20:56:00.863Z,9.77
2022-11-27T20:58:27.969Z,9.60
2022-11-27T21:00:54.368Z,9.25
2022-11-27T21:03:20.964Z,9.38
2022-11-27T21:05:48.120Z,8.52
2022-11-27T21:08:14.566Z,9.25
2022-11-27T21:10:40.933Z,9.60
2022-11-27T21:13:07.270Z,9.52
2022-11-27T21:15:33.793Z,9.18
2022-11-27T21:18:00.466Z,9.40
2022-11-27T21:20:28.296Z,9.38
2022-11-27T21:22:54.992Z,8.75
2022-11-27T21:25:25.468Z,9.65
2022-11-27T21:27:55.755Z,9.93
2022-11-27T21:30:22.101Z,9.18
2022-11-27T21:32:48.445Z,9.07
2022-11-27T21:35:15.260Z,9.32
2022-11-27T21:37:43.086Z,9.13
2022-11-27T21:40:10.530Z,8.93
2022-11-27T21:42:41.568Z,9.88
2022-11-27T21:45:10.617Z,8.80
2022-11-27T21:47:37.042Z,9.00
2022-11-27T21:50:03.570Z,9.35
2022-11-27T21:52:29.922Z,8.85
2022-11-27T21:54:56.353Z,9.77
2022-11-27T21:57:23.074Z,9.90
2022-11-27T21:59:49.786Z,9.50
2022-11-27T22:02:16.152Z,9.70
2022-11-27T22:04:43.690Z,10.13
2022-11-27T22:07:10.241Z,10.43
2022-11-27T22:09:36.578Z,9.85
2022-11-27T22:12:02.989Z,10.07
2022-11-27T22:14:30.254Z,10.15
2022-11-27T22:16:57.092Z,9.98
2022-11-27T22:19:23.634Z,9.75
2022-11-27T22:21:49.949Z,10.48
2022-11-27T22:24:19.364Z,10.15
2022-11-27T22:26:49.996Z,10.25
2022-11-27T22:29:17.281Z,9.77
2022-11-27T22:31:43.993Z,10.13
2022-11-27T22:34:10.442Z,10.25
2022-11-27T22:36:37.834Z,10.77
2022-11-27T22:39:06.431Z,9.88
2022-11-27T22:41:36.340Z,10.57
2022-11-27T22:44:06.996Z,10.00
2022-11-27T22:46:35.332Z,10.65
2022-11-27T22:49:04.131Z,9.65
2022-11-27T22:51:31.366Z,10.07
2022-11-27T22:53:58.747Z,9.70
2022-11-27T22:56:25.939Z,9.55
2022-11-27T22:59:34.501Z,9.27
2022-11-27T23:01:52.540Z,9.20
2022-11-27T23:04:18.881Z,9.57
2022-11-27T23:06:47.879Z,10.00
2022-11-27T23:09:14.913Z,9.27
2022-11-27T23:11:41.253Z,10.05
2022-11-27T23:14:07.639Z,9.95
2022-11-27T23:16:34.739Z,9.60
2022-11-27T23:19:01.198Z,9.63
2022-11-27T23:21:27.560Z,9.48
2022-11-27T23:23:53.932Z,9.32
2022-11-27T23:26:22.217Z,9.38
2022-11-27T23:28:50.543Z,9.90
2022-11-27T23:31:33.503Z,9.40
2022-11-27T23:34:02.028Z,9.35
2022-11-27T23:36:29.305Z,9.95
2022-11-27T23:38:55.999Z,9.75
2022-11-27T23:41:23.843Z,10.43
2022-11-27T23:43:51.184Z,10.50
2022-11-27T23:46:18.931Z,10.45
2022-11-27T23:48:45.868Z,10.73
2022-11-27T23:51:15.229Z,10.65
2022-11-27T23:53:41.643Z,10.73
2022-11-27T23:56:09.675Z,10.80
2022-11-27T23:58:36.037Z,11.60
